Terminal Aerodrome Forecast
Issued by NWS

Home | Current Version | Previous Version | Text Only | Print | Product List | Glossary On
Versions: 1 2 3 4 5 6 7 8 9 10 11 12 13 14 15 16 17 18 19
000
FTUS43 KMQT 071129
TAFCMX
TAF
KCMX 071129Z 0712/0812 33010KT P6SM SCT020 BKN030
     FM071500 30014KT P6SM SCT100
     FM080200 27005KT P6SM FEW200=

USA.gov is the U.S. government's official web portal to all federal, state and local government web resources and services.